createdAt,value
2022-10-10T00:01:27.131Z,13.99
2022-10-10T00:03:55.199Z,13.97
2022-10-10T00:06:23.067Z,14.01
2022-10-10T00:08:53.196Z,14.01
2022-10-10T00:11:22.789Z,13.99
2022-10-10T00:13:52.128Z,14.06
2022-10-10T00:16:20.156Z,14.12
2022-10-10T00:18:48.148Z,14.22
2022-10-10T00:21:18.476Z,14.30
2022-10-10T00:23:45.689Z,14.34
2022-10-10T00:26:19.164Z,14.32
2022-10-10T00:28:47.790Z,14.42
2022-10-10T00:31:15.449Z,14.41
2022-10-10T00:33:46.921Z,14.33
2022-10-10T00:36:14.624Z,14.27
2022-10-10T00:38:42.339Z,14.17
2022-10-10T00:41:10.003Z,14.11
2022-10-10T00:43:37.571Z,13.99
2022-10-10T00:46:04.919Z,13.91
2022-10-10T00:48:37.702Z,13.85
2022-10-10T00:51:06.612Z,13.72
2022-10-10T00:53:44.972Z,13.62
2022-10-10T00:56:13.814Z,13.55
2022-10-10T00:58:45.210Z,13.48
2022-10-10T01:01:12.654Z,13.42
2022-10-10T01:03:39.999Z,13.36
2022-10-10T01:06:07.306Z,13.28
2022-10-10T01:08:35.510Z,13.21
2022-10-10T01:11:08.896Z,13.17
2022-10-10T01:14:04.841Z,13.12
2022-10-10T01:16:38.253Z,13.10
2022-10-10T01:19:25.286Z,13.07
2022-10-10T01:22:29.823Z,13.02
2022-10-10T01:25:23.748Z,13.01
2022-10-10T01:28:02.943Z,13.01
2022-10-10T01:30:31.241Z,12.97
2022-10-10T01:33:09.165Z,12.93
2022-10-10T01:35:59.471Z,12.87
2022-10-10T01:38:45.411Z,12.84
2022-10-10T01:41:15.625Z,12.82
2022-10-10T01:43:43.295Z,12.78
2022-10-10T01:46:16.640Z,12.73
2022-10-10T01:48:47.169Z,12.71
2022-10-10T01:51:32.651Z,12.67
2022-10-10T01:54:24.542Z,12.62
2022-10-10T01:57:01.288Z,12.57
2022-10-10T01:59:49.052Z,12.54
2022-10-10T02:02:24.427Z,12.53
2022-10-10T02:05:14.481Z,12.52
2022-10-10T02:07:47.894Z,12.50
2022-10-10T02:10:21.277Z,12.49
2022-10-10T02:12:49.388Z,12.53
2022-10-10T02:15:24.978Z,12.52
2022-10-10T02:17:52.608Z,12.52
2022-10-10T02:20:23.294Z,12.52
2022-10-10T02:22:54.463Z,12.52
2022-10-10T02:25:27.228Z,12.49
2022-10-10T02:28:00.049Z,12.46
2022-10-10T02:30:27.532Z,12.45
2022-10-10T02:33:09.016Z,12.39
2022-10-10T02:35:41.846Z,12.37
2022-10-10T02:38:11.478Z,12.34
2022-10-10T02:40:40.191Z,12.24
2022-10-10T02:43:08.707Z,12.27
2022-10-10T02:45:36.265Z,12.23
2022-10-10T02:48:04.293Z,12.20
2022-10-10T02:50:31.940Z,12.17
2022-10-10T02:52:59.985Z,12.11
2022-10-10T02:55:27.735Z,12.08
2022-10-10T02:57:55.004Z,12.08
2022-10-10T03:00:22.351Z,12.02
2022-10-10T03:02:52.576Z,12.01
2022-10-10T03:05:19.953Z,11.93
2022-10-10T03:07:47.494Z,11.93
2022-10-10T03:10:14.697Z,11.94
2022-10-10T03:12:41.948Z,11.94
2022-10-10T03:15:12.322Z,11.92
2022-10-10T03:17:40.587Z,11.91
2022-10-10T03:20:10.472Z,11.97
2022-10-10T03:22:40.984Z,11.96
2022-10-10T03:25:08.341Z,11.98
2022-10-10T03:27:35.691Z,11.98
2022-10-10T03:30:04.242Z,11.98
2022-10-10T03:32:31.879Z,12.04
2022-10-10T03:34:59.191Z,12.02
2022-10-10T03:37:26.819Z,12.04
2022-10-10T03:39:54.305Z,12.10
2022-10-10T03:42:23.028Z,12.14
2022-10-10T03:44:50.255Z,12.20
2022-10-10T03:47:17.506Z,12.27
2022-10-10T03:49:44.772Z,12.33
2022-10-10T03:52:12.011Z,12.37
2022-10-10T03:54:39.365Z,12.42
2022-10-10T03:57:08.054Z,12.46
2022-10-10T03:59:35.424Z,12.48
2022-10-10T04:02:02.678Z,12.56
2022-10-10T04:04:29.967Z,12.63
2022-10-10T04:06:57.196Z,12.70
2022-10-10T04:09:25.996Z,12.77
2022-10-10T04:11:55.129Z,12.83
2022-10-10T04:14:22.475Z,12.92
2022-10-10T04:16:49.751Z,13.01
2022-10-10T04:19:17.719Z,13.14
2022-10-10T04:21:46.004Z,13.33
2022-10-10T04:24:13.257Z,13.41
2022-10-10T04:26:40.512Z,13.62
2022-10-10T04:29:08.436Z,13.89
2022-10-10T04:31:35.787Z,13.98
2022-10-10T04:34:02.977Z,14.08
2022-10-10T04:36:31.056Z,14.30
2022-10-10T04:38:59.489Z,14.33
2022-10-10T04:41:29.236Z,14.20
2022-10-10T04:43:56.497Z,14.03
2022-10-10T04:46:24.005Z,13.84
2022-10-10T04:48:51.450Z,13.71
2022-10-10T04:51:21.874Z,13.66
2022-10-10T04:53:50.535Z,13.62
2022-10-10T04:56:17.933Z,13.61
2022-10-10T04:58:45.190Z,13.53
2022-10-10T05:01:12.455Z,13.48
2022-10-10T05:03:40.354Z,13.41
2022-10-10T05:06:07.803Z,13.34
2022-10-10T05:08:35.203Z,13.33
2022-10-10T05:11:05.154Z,13.30
2022-10-10T05:13:32.431Z,13.36
2022-10-10T05:16:01.873Z,13.45
2022-10-10T05:18:29.250Z,13.57
2022-10-10T05:20:59.812Z,13.69
2022-10-10T05:23:30.654Z,13.80
2022-10-10T05:25:57.909Z,13.95
2022-10-10T05:28:25.389Z,14.09
2022-10-10T05:30:52.971Z,14.16
2022-10-10T05:33:21.351Z,14.23
2022-10-10T05:35:48.814Z,14.25
2022-10-10T05:38:16.163Z,14.28
2022-10-10T05:40:58.168Z,14.34
2022-10-10T05:43:31.899Z,14.46
2022-10-10T05:46:00.162Z,14.60
2022-10-10T05:48:28.425Z,14.62
2022-10-10T05:53:53.194Z,14.64
2022-10-10T05:56:23.621Z,14.68
2022-10-10T06:02:13.634Z,14.61
2022-10-10T06:04:41.719Z,14.59
2022-10-10T06:07:12.553Z,14.56
2022-10-10T06:09:42.107Z,14.47
2022-10-10T06:32:14.715Z,14.74
2022-10-10T06:34:42.353Z,14.71
2022-10-10T06:37:12.636Z,14.67
2022-10-10T06:39:39.938Z,14.72
2022-10-10T06:42:09.122Z,14.82
2022-10-10T06:44:38.201Z,14.96
2022-10-10T06:47:05.582Z,15.08
2022-10-10T06:49:37.081Z,15.22
2022-10-10T06:52:04.875Z,15.45
2022-10-10T06:54:32.200Z,15.68
2022-10-10T06:56:59.917Z,15.92
2022-10-10T06:59:30.227Z,16.14
2022-10-10T07:01:58.511Z,16.38
2022-10-10T07:04:25.835Z,16.51
2022-10-10T07:06:55.194Z,16.59
2022-10-10T07:09:22.640Z,16.81
2022-10-10T07:11:50.497Z,16.98
2022-10-10T07:14:19.113Z,17.16
2022-10-10T07:16:49.020Z,17.33
2022-10-10T07:19:25.148Z,17.48
2022-10-10T07:21:52.647Z,17.63
2022-10-10T07:24:20.207Z,17.56
2022-10-10T07:26:49.536Z,17.58
2022-10-10T07:29:18.264Z,17.54
2022-10-10T07:31:45.558Z,17.60
2022-10-10T07:34:12.765Z,17.82
2022-10-10T07:36:40.248Z,17.77
2022-10-10T07:39:07.922Z,17.62
2022-10-10T07:41:42.981Z,17.37
2022-10-10T07:44:11.906Z,17.22
2022-10-10T07:46:42.354Z,17.10
2022-10-10T07:49:13.205Z,17.03
2022-10-10T07:51:42.507Z,17.07
2022-10-10T07:54:10.023Z,17.10
2022-10-10T07:56:37.790Z,17.02
2022-10-10T07:59:07.509Z,16.85
2022-10-10T08:01:36.084Z,16.81
2022-10-10T08:04:16.980Z,16.82
2022-10-10T08:06:56.949Z,16.70
2022-10-10T08:09:40.203Z,16.54
2022-10-10T08:12:09.712Z,16.47
2022-10-10T08:15:21.541Z,16.40
2022-10-10T08:18:11.657Z,16.43
2022-10-10T08:20:40.804Z,16.49
2022-10-10T08:23:08.116Z,16.32
2022-10-10T08:25:35.485Z,16.35
2022-10-10T08:28:08.329Z,16.34
2022-10-10T08:30:40.551Z,16.40
2022-10-10T08:33:07.853Z,16.46
2022-10-10T08:35:39.083Z,16.52
2022-10-10T08:38:07.010Z,16.56
2022-10-10T08:40:34.380Z,16.58
2022-10-10T08:43:04.738Z,16.51
2022-10-10T08:45:33.456Z,16.53
2022-10-10T08:48:12.678Z,16.58
2022-10-10T08:50:53.580Z,16.52
2022-10-10T08:53:27.207Z,16.43
2022-10-10T08:58:55.910Z,16.07
2022-10-10T09:01:34.658Z,15.94
2022-10-10T09:04:05.346Z,15.91
2022-10-10T09:06:47.745Z,15.79
2022-10-10T09:09:20.701Z,15.68
2022-10-10T09:12:03.305Z,15.56
2022-10-10T09:14:50.577Z,15.49
2022-10-10T09:17:50.324Z,15.50
2022-10-10T09:20:36.080Z,15.62
2022-10-10T09:23:19.086Z,15.73
2022-10-10T09:25:51.412Z,15.88
2022-10-10T09:28:38.381Z,15.98
2022-10-10T09:31:12.719Z,16.00
2022-10-10T09:33:54.514Z,15.91
2022-10-10T09:36:35.281Z,15.82
2022-10-10T09:39:38.888Z,15.83
2022-10-10T09:42:18.170Z,15.89
2022-10-10T09:44:47.294Z,15.80
2022-10-10T09:47:19.262Z,15.75
2022-10-10T09:49:49.653Z,15.61
2022-10-10T09:52:23.533Z,15.52
2022-10-10T09:54:57.208Z,15.48
2022-10-10T09:57:30.402Z,15.44
2022-10-10T10:00:03.804Z,15.44
2022-10-10T10:02:34.711Z,15.44
2022-10-10T10:05:20.849Z,15.58
2022-10-10T10:07:53.320Z,15.70
2022-10-10T10:10:24.536Z,15.85
2022-10-10T10:12:54.681Z,15.92
2022-10-10T10:15:29.082Z,15.91
2022-10-10T10:18:17.505Z,15.89
2022-10-10T10:20:49.838Z,15.83
2022-10-10T10:23:30.764Z,15.79
2022-10-10T10:26:09.477Z,15.63
2022-10-10T10:28:41.580Z,15.52
2022-10-10T10:31:23.877Z,15.40
2022-10-10T10:34:40.401Z,15.33
2022-10-10T10:37:19.534Z,15.29
2022-10-10T10:40:18.572Z,15.30
2022-10-10T10:43:00.222Z,15.23
2022-10-10T10:45:45.596Z,15.10
2022-10-10T10:48:29.329Z,15.02
2022-10-10T10:51:17.498Z,14.87
2022-10-10T10:54:06.298Z,14.75
2022-10-10T10:56:46.704Z,14.61
2022-10-10T11:00:22.442Z,14.59
2022-10-10T11:02:57.526Z,14.45
2022-10-10T11:06:24.297Z,14.41
2022-10-10T11:09:31.035Z,14.37
2022-10-10T11:12:27.634Z,14.32
2022-10-10T11:16:05.305Z,14.22
2022-10-10T11:18:36.485Z,14.15
2022-10-10T11:21:21.354Z,14.03
2022-10-10T11:24:10.694Z,13.85
2022-10-10T11:26:47.829Z,13.67
2022-10-10T11:29:19.238Z,13.47
2022-10-10T11:32:13.005Z,13.28
2022-10-10T11:35:14.082Z,13.05
2022-10-10T11:37:46.682Z,12.90
2022-10-10T11:40:54.654Z,12.83
2022-10-10T11:43:27.511Z,12.78
2022-10-10T11:46:04.627Z,12.67
2022-10-10T11:48:41.052Z,12.67
2022-10-10T11:51:25.921Z,12.64
2022-10-10T11:53:58.110Z,12.60
2022-10-10T11:56:33.293Z,12.58
2022-10-10T11:59:35.262Z,12.59
2022-10-10T12:02:14.745Z,12.62
2022-10-10T12:04:44.796Z,12.65
2022-10-10T12:07:26.268Z,12.69
2022-10-10T12:10:06.959Z,12.73
2022-10-10T12:12:46.117Z,12.69
2022-10-10T12:15:25.195Z,12.68
2022-10-10T12:17:52.871Z,12.70
2022-10-10T12:20:20.127Z,12.70
2022-10-10T12:23:11.113Z,12.72
2022-10-10T12:25:42.484Z,12.75
2022-10-10T12:28:12.733Z,12.76
2022-10-10T12:30:57.130Z,12.76
2022-10-10T12:33:34.730Z,12.77
2022-10-10T12:36:17.010Z,12.80
2022-10-10T12:39:10.208Z,12.82
2022-10-10T12:41:47.548Z,12.83
2022-10-10T12:44:15.172Z,12.80
2022-10-10T12:46:45.802Z,12.80
2022-10-10T12:49:22.736Z,12.76
2022-10-10T12:52:12.705Z,12.73
2022-10-10T12:55:06.770Z,12.69
2022-10-10T12:58:02.599Z,12.60
2022-10-10T13:01:47.928Z,12.62
2022-10-10T13:04:23.812Z,12.62
2022-10-10T13:06:55.523Z,12.66
2022-10-10T13:09:29.985Z,12.67
2022-10-10T13:12:04.372Z,12.72
2022-10-10T13:14:45.215Z,12.73
2022-10-10T13:17:36.371Z,12.71
2022-10-10T13:20:09.879Z,12.79
2022-10-10T13:22:37.488Z,12.77
2022-10-10T13:25:12.346Z,12.73
2022-10-10T13:27:40.498Z,12.68
2022-10-10T13:30:08.705Z,12.68
2022-10-10T13:32:37.548Z,12.63
2022-10-10T13:35:13.965Z,12.61
2022-10-10T13:37:42.065Z,12.60
2022-10-10T13:40:22.549Z,12.60
2022-10-10T13:42:56.131Z,12.61
2022-10-10T13:45:31.589Z,12.45
2022-10-10T13:48:01.842Z,12.39
2022-10-10T13:50:53.702Z,12.18
2022-10-10T13:53:30.465Z,12.42
2022-10-10T13:56:23.901Z,12.42
2022-10-10T13:59:13.061Z,12.44
2022-10-10T14:01:45.359Z,12.41
2022-10-10T14:04:25.207Z,12.41
2022-10-10T14:07:28.957Z,12.42
2022-10-10T14:10:06.582Z,12.46
2022-10-10T14:12:39.893Z,12.44
2022-10-10T14:15:36.691Z,12.36
2022-10-10T14:18:13.535Z,12.28
2022-10-10T14:20:43.224Z,12.27
2022-10-10T14:23:13.722Z,12.22
2022-10-10T14:25:43.900Z,12.22
2022-10-10T14:28:35.207Z,12.19
2022-10-10T14:31:04.459Z,12.21
2022-10-10T14:33:35.422Z,12.26
2022-10-10T14:36:03.671Z,12.28
2022-10-10T14:38:31.640Z,12.30
2022-10-10T14:41:00.131Z,12.34
2022-10-10T14:43:29.255Z,12.36
2022-10-10T14:45:57.865Z,12.33
2022-10-10T14:48:25.614Z,12.34
2022-10-10T14:50:53.214Z,12.34
2022-10-10T14:53:21.883Z,12.33
2022-10-10T14:55:53.847Z,12.27
2022-10-10T14:58:23.911Z,12.19
2022-10-10T15:00:52.452Z,12.17
2022-10-10T15:03:19.761Z,12.14
2022-10-10T15:05:48.709Z,12.07
2022-10-10T15:08:17.996Z,12.04
2022-10-10T15:10:46.427Z,12.04
2022-10-10T15:13:14.563Z,12.02
2022-10-10T15:15:42.090Z,12.01
2022-10-10T15:18:26.649Z,12.01
2022-10-10T15:20:59.344Z,12.02
2022-10-10T15:23:27.145Z,12.01
2022-10-10T15:25:54.341Z,11.97
2022-10-10T15:28:21.673Z,11.99
2022-10-10T15:30:49.117Z,11.94
2022-10-10T15:33:17.984Z,11.97
2022-10-10T15:36:07.957Z,11.94
2022-10-10T15:38:34.592Z,11.93
2022-10-10T15:41:09.810Z,11.87
2022-10-10T15:43:54.634Z,11.89
2022-10-10T15:46:26.775Z,11.87
2022-10-10T15:48:56.381Z,11.84
2022-10-10T15:51:26.370Z,11.82
2022-10-10T15:54:07.693Z,11.77
2022-10-10T15:56:36.219Z,11.77
2022-10-10T15:59:14.078Z,11.76
2022-10-10T16:01:43.562Z,11.74
2022-10-10T16:04:10.981Z,11.73
2022-10-10T16:06:38.436Z,11.71
2022-10-10T16:09:27.588Z,11.68
2022-10-10T16:11:56.000Z,11.69
2022-10-10T16:14:25.425Z,11.68
2022-10-10T16:16:53.770Z,11.68
2022-10-10T16:19:22.562Z,11.69
2022-10-10T16:21:50.136Z,11.68
2022-10-10T16:24:17.620Z,11.67
2022-10-10T16:26:47.147Z,11.66
2022-10-10T16:29:15.767Z,11.66
2022-10-10T16:31:43.635Z,11.67
2022-10-10T16:34:18.302Z,11.67
2022-10-10T16:36:46.092Z,11.68
2022-10-10T16:39:13.971Z,11.67
2022-10-10T16:41:47.918Z,11.67
2022-10-10T16:44:17.224Z,11.66
2022-10-10T16:46:45.054Z,11.62
2022-10-10T16:49:13.881Z,11.65
2022-10-10T16:51:44.420Z,11.61
2022-10-10T16:54:12.985Z,11.61
2022-10-10T16:56:41.993Z,11.50
2022-10-10T16:59:10.399Z,11.55
2022-10-10T17:01:37.783Z,11.59
2022-10-10T17:04:05.049Z,11.58
2022-10-10T17:06:37.869Z,11.60
2022-10-10T17:09:11.485Z,11.60
2022-10-10T17:11:40.173Z,11.51
2022-10-10T17:14:07.838Z,11.55
2022-10-10T17:19:23.676Z,11.54
2022-10-10T17:21:53.379Z,11.51
2022-10-10T17:24:25.241Z,11.49
2022-10-10T17:26:55.040Z,11.45
2022-10-10T17:29:24.045Z,11.45
2022-10-10T17:31:51.356Z,11.43
2022-10-10T17:34:20.341Z,11.44
2022-10-10T17:36:48.831Z,11.43
2022-10-10T17:39:16.186Z,11.46
2022-10-10T17:41:48.191Z,11.46
2022-10-10T17:44:15.730Z,11.48
2022-10-10T17:46:47.335Z,11.45
2022-10-10T17:49:14.623Z,11.48
2022-10-10T17:51:42.192Z,11.49
2022-10-10T17:54:10.169Z,11.49
2022-10-10T17:56:40.763Z,11.48
2022-10-10T17:59:08.201Z,11.47
2022-10-10T18:01:37.087Z,11.42
2022-10-10T18:04:05.036Z,11.47
2022-10-10T18:06:37.070Z,11.47
2022-10-10T18:09:05.848Z,11.44
2022-10-10T18:11:33.605Z,11.38
2022-10-10T18:14:03.836Z,11.36
2022-10-10T18:16:34.519Z,11.40
2022-10-10T18:19:11.063Z,11.44
2022-10-10T18:21:38.690Z,11.39
2022-10-10T18:24:09.205Z,11.40
2022-10-10T18:26:41.883Z,11.33
2022-10-10T18:29:13.072Z,11.31
2022-10-10T18:31:47.998Z,11.31
2022-10-10T18:34:17.260Z,11.29
2022-10-10T18:36:44.783Z,11.26
2022-10-10T18:39:23.794Z,11.24
2022-10-10T18:41:55.956Z,11.18
2022-10-10T18:44:24.548Z,11.16
2022-10-10T18:46:52.059Z,11.19
2022-10-10T18:49:21.713Z,11.16
2022-10-10T18:51:51.104Z,11.15
2022-10-10T18:54:21.537Z,11.10
2022-10-10T18:56:52.129Z,11.09
2022-10-10T18:59:22.265Z,11.06
2022-10-10T19:01:51.914Z,11.04
2022-10-10T19:04:22.611Z,10.98
2022-10-10T19:06:57.050Z,10.95
2022-10-10T19:09:26.953Z,10.91
2022-10-10T19:11:55.972Z,10.93
2022-10-10T19:14:29.601Z,10.93
2022-10-10T19:16:58.926Z,10.92
2022-10-10T19:19:29.371Z,10.94
2022-10-10T19:21:56.859Z,10.90
2022-10-10T19:24:25.877Z,10.87
2022-10-10T19:26:56.784Z,10.91
2022-10-10T19:29:25.688Z,10.90
2022-10-10T19:31:53.613Z,10.90
2022-10-10T19:34:20.957Z,10.90
2022-10-10T19:36:49.824Z,10.91
2022-10-10T19:39:17.220Z,10.93
2022-10-10T19:41:44.439Z,10.93
2022-10-10T19:44:11.657Z,10.86
2022-10-10T19:46:39.344Z,10.89
2022-10-10T19:49:06.705Z,10.83
2022-10-10T19:51:34.695Z,10.82
2022-10-10T19:54:02.605Z,10.82
2022-10-10T19:56:30.252Z,10.79
2022-10-10T19:59:01.326Z,10.74
2022-10-10T20:01:30.544Z,10.77
2022-10-10T20:03:58.582Z,10.75
2022-10-10T20:06:26.752Z,10.72
2022-10-10T20:08:54.376Z,10.77
2022-10-10T20:11:23.270Z,10.77
2022-10-10T20:13:57.507Z,10.78
2022-10-10T20:16:26.980Z,10.78
2022-10-10T20:18:57.256Z,10.80
2022-10-10T20:21:32.379Z,10.79
2022-10-10T20:24:08.982Z,10.76
2022-10-10T20:26:36.757Z,10.78
2022-10-10T20:29:05.548Z,10.83
2022-10-10T20:31:34.960Z,10.82
2022-10-10T20:34:03.810Z,10.89
2022-10-10T20:36:32.505Z,10.91
2022-10-10T20:39:02.416Z,10.93
2022-10-10T20:41:31.574Z,10.91
2022-10-10T20:44:01.260Z,10.98
2022-10-10T20:46:30.755Z,10.97
2022-10-10T20:48:59.288Z,11.01
2022-10-10T20:51:28.202Z,10.94
2022-10-10T20:54:01.141Z,11.02
2022-10-10T20:56:29.845Z,11.01
2022-10-10T20:58:59.155Z,10.94
2022-10-10T21:01:29.293Z,10.99
2022-10-10T21:03:57.197Z,10.95
2022-10-10T21:06:44.417Z,10.97
2022-10-10T21:09:14.011Z,10.95
2022-10-10T21:11:46.442Z,10.92
2022-10-10T21:14:16.252Z,10.93
2022-10-10T21:16:43.998Z,10.90
2022-10-10T21:19:12.199Z,10.85
2022-10-10T21:21:40.616Z,10.82
2022-10-10T21:24:11.023Z,10.83
2022-10-10T21:26:39.529Z,10.84
2022-10-10T21:29:06.886Z,10.81
2022-10-10T21:31:36.862Z,10.72
2022-10-10T21:34:07.177Z,10.72
2022-10-10T21:36:36.729Z,10.71
2022-10-10T21:39:06.591Z,10.66
2022-10-10T21:41:34.465Z,10.62
2022-10-10T21:44:01.961Z,10.62
2022-10-10T21:46:36.626Z,10.60
2022-10-10T21:49:10.103Z,10.54
2022-10-10T21:51:40.103Z,10.55
2022-10-10T21:54:09.174Z,10.57
2022-10-10T21:56:37.669Z,10.57
2022-10-10T21:59:06.007Z,10.57
2022-10-10T22:01:33.890Z,10.57
2022-10-10T22:04:02.476Z,10.55
2022-10-10T22:06:32.064Z,10.56
2022-10-10T22:09:00.787Z,10.54
2022-10-10T22:11:34.529Z,10.52
2022-10-10T22:14:04.908Z,10.48
2022-10-10T22:16:34.190Z,10.51
2022-10-10T22:19:04.718Z,10.46
2022-10-10T22:21:34.823Z,10.51
2022-10-10T22:24:05.581Z,10.47
2022-10-10T22:26:33.971Z,10.49
2022-10-10T22:29:01.219Z,10.49
2022-10-10T22:31:30.409Z,10.47
2022-10-10T22:33:58.008Z,10.48
2022-10-10T22:36:25.271Z,10.46
2022-10-10T22:38:54.134Z,10.46
2022-10-10T22:41:21.830Z,10.41
2022-10-10T22:43:49.833Z,10.43
2022-10-10T22:46:17.306Z,10.41
2022-10-10T22:48:49.972Z,10.40
2022-10-10T22:51:19.837Z,10.43
2022-10-10T22:53:52.189Z,10.42
2022-10-10T22:56:20.811Z,10.43
2022-10-10T22:58:49.917Z,10.42
2022-10-10T23:01:20.659Z,10.44
2022-10-10T23:03:48.382Z,10.46
2022-10-10T23:06:18.657Z,10.47
2022-10-10T23:17:14.672Z,10.43
2022-10-10T23:19:45.274Z,10.43
2022-10-10T23:22:13.040Z,10.43
2022-10-10T23:36:04.471Z,10.44
2022-10-10T23:38:37.070Z,10.44
2022-10-10T23:41:08.407Z,10.41
2022-10-10T23:43:36.219Z,10.42
2022-10-10T23:46:04.291Z,10.40
2022-10-10T23:48:32.494Z,10.40
2022-10-10T23:59:20.842Z,10.42
